Impacts TAF Board INFO
FOR SITUATIONAL AWARENESS. NOT TO BE USED FOR FLIGHT PLANNING PURPOSES.
IDs:

KBOS - Boston/Logan Intl, MA, US

Issued at 1141 UTC 25 Jul 2017
Updated at 1231 UTC 25 Jul 2017
Potential Impact None Slight Moderate High
Time1154Z 25/13Z 25/14Z 25/15Z 25/16Z 25/17Z 25/18Z 25/19Z 25/20Z 25/21Z 25/22Z 25/23Z 26/00Z 26/01Z>>
Type OBS PRVL PRVL PRVL PRVL PRVL PRVL PRVL PRVL PRVL PRVL PRVL PRVL PRVL
VIS 10 >6 >6 >6 >6 >6 >6 >6 >6 >6 >6 >6 >6 >6
CIG 9 15 20 20 20 20 25 25 25 -- -- -- -- --
Cover OVC OVC OVC OVC OVC OVC OVC OVC OVC SCT SCT SCT SCT SCT
FltCat IFR MVFR MVFR MVFR MVFR MVFR MVFR MVFR MVFR VFR VFR VFR VFR VFR
WX -- -- -- -- -- -- -- -- -- -- -- -- -- --
WDir 360 360 20 20 20 20 40 40 40 60 60 60 60 60
WSpd 9 8 8 8 8 8 7 7 7 6 6 6 6 6
WGst -- -- -- -- -- -- -- -- -- -- -- -- -- --

Raw TAF
KBOS 251141Z 2512/2618 36008KT P6SM SCT008 OVC015
  FM251400 02008KT P6SM OVC020
  FM251800 04007KT P6SM OVC025
  FM252100 06006KT P6SM SCT025
  FM261400 06005KT P6SM FEW250


Raw METAR
KBOS 251154Z 36009KT 10SM OVC009 14/13 A3007 RMK AO2 SLP183 70139 T01390128 10144 20133 53021 $
KBOS 251139Z 36007KT 10SM BKN009 OVC014 14/13 A3007 RMK AO2 T01440133 $
KBOS 251054Z 36007KT 10SM SCT008 OVC014 14/13 A3005 RMK AO2 SLP175 T01390128 $
KBOS 250954Z 36008KT 3SM BR SCT008 OVC011 13/13 A3003 RMK AO2 SLP169 T01330128 $

METAR Board
Radar Display
Forecast Discussion

FOR SITUATIONAL AWARENESS. NOT TO BE USED FOR FLIGHT PLANNING PURPOSES.